createdAt,value
2022-10-12T00:00:42.012Z,98718.88
2022-10-12T00:03:13.308Z,98722.78
2022-10-12T00:05:43.594Z,98725.41
2022-10-12T00:08:16.209Z,98724.91
2022-10-12T00:10:47.226Z,98727.47
2022-10-12T00:13:17.206Z,98721.91
2022-10-12T00:15:47.267Z,98728.22
2022-10-12T00:18:17.254Z,98725.44
2022-10-12T00:20:47.879Z,98731.13
2022-10-12T00:23:20.447Z,98722.88
2022-10-12T00:25:50.432Z,98727.16
2022-10-12T00:28:20.469Z,98727.41
2022-10-12T00:30:50.489Z,98722.19
2022-10-12T00:33:20.454Z,98719.09
2022-10-12T00:35:50.407Z,98711.19
2022-10-12T00:38:23.069Z,98715.72
2022-10-12T00:40:53.541Z,98717.00
2022-10-12T00:43:34.434Z,98714.53
2022-10-12T00:46:09.973Z,98714.91
2022-10-12T00:48:40.594Z,98713.19
2022-10-12T00:51:12.603Z,98712.53
2022-10-12T00:53:52.389Z,98707.13
2022-10-12T00:56:28.419Z,98707.72
2022-10-12T00:59:02.745Z,98710.00
2022-10-12T01:01:37.578Z,98716.00
2022-10-12T01:04:10.187Z,98716.75
2022-10-12T01:06:40.445Z,98712.59
2022-10-12T01:09:13.027Z,98705.53
2022-10-12T01:11:43.111Z,98708.34
2022-10-12T01:14:13.489Z,98707.97
2022-10-12T01:16:53.341Z,98712.31
2022-10-12T01:19:57.283Z,98715.34
2022-10-12T01:22:28.227Z,98712.59
2022-10-12T01:25:11.373Z,98703.03
2022-10-12T01:27:50.328Z,98706.63
2022-10-12T01:30:25.921Z,98708.28
2022-10-12T01:33:25.132Z,98703.53
2022-10-12T01:36:08.090Z,98698.88
2022-10-12T01:38:50.973Z,98702.13
2022-10-12T01:41:27.748Z,98698.72
2022-10-12T01:43:57.756Z,98701.63
2022-10-12T01:46:49.321Z,98694.31
2022-10-12T01:49:26.547Z,98694.34
2022-10-12T01:52:24.133Z,98697.88
2022-10-12T01:55:19.642Z,98698.00
2022-10-12T01:58:23.044Z,98696.34
2022-10-12T02:01:05.224Z,98697.84
2022-10-12T02:03:46.172Z,98687.09
2022-10-12T02:06:21.308Z,98688.09
2022-10-12T02:09:02.929Z,98690.44
2022-10-12T02:11:37.140Z,98692.31
2022-10-12T02:14:18.629Z,98695.84
2022-10-12T02:16:55.833Z,98692.50
2022-10-12T02:19:33.763Z,98688.03
2022-10-12T02:22:08.621Z,98693.41
2022-10-12T02:24:47.174Z,98689.34
2022-10-12T02:27:21.080Z,98683.38
2022-10-12T02:29:52.237Z,98680.47
2022-10-12T02:32:29.844Z,98690.81
2022-10-12T02:35:11.551Z,98684.16
2022-10-12T02:37:47.839Z,98673.34
2022-10-12T02:40:26.974Z,98670.78
2022-10-12T02:43:10.531Z,98681.97
2022-10-12T02:45:46.172Z,98676.22
2022-10-12T02:48:23.289Z,98689.31
2022-10-12T02:50:59.846Z,98683.19
2022-10-12T02:53:33.128Z,98678.44
2022-10-12T02:56:07.446Z,98677.03
2022-10-12T02:58:37.708Z,98684.78
2022-10-12T03:01:08.214Z,98678.63
2022-10-12T03:03:38.275Z,98679.47
2022-10-12T03:06:11.633Z,98679.84
2022-10-12T03:08:41.806Z,98680.16
2022-10-12T03:11:16.223Z,98685.81
2022-10-12T03:13:46.231Z,98689.50
2022-10-12T03:16:16.325Z,98689.91
2022-10-12T03:18:46.329Z,98681.47
2022-10-12T03:21:19.726Z,98691.88
2022-10-12T03:23:49.829Z,98694.97
2022-10-12T03:26:19.891Z,98694.88
2022-10-12T03:28:50.176Z,98698.09
2022-10-12T03:31:20.798Z,98700.22
2022-10-12T03:33:50.837Z,98697.13
2022-10-12T03:36:23.466Z,98691.81
2022-10-12T03:38:53.504Z,98708.72
2022-10-12T03:41:23.526Z,98709.56
2022-10-12T03:43:53.746Z,98701.88
2022-10-12T03:46:23.754Z,98703.00
2022-10-12T03:48:53.858Z,98711.25
2022-10-12T03:51:27.144Z,98707.31
2022-10-12T03:53:57.162Z,98704.44
2022-10-12T03:56:27.260Z,98708.34
2022-10-12T03:58:57.297Z,98711.66
2022-10-12T04:01:27.526Z,98709.78
2022-10-12T04:03:58.057Z,98708.06
2022-10-12T04:06:30.701Z,98709.16
2022-10-12T04:09:00.691Z,98700.28
2022-10-12T04:11:30.907Z,98703.25
2022-10-12T04:14:00.947Z,98702.88
2022-10-12T04:16:31.261Z,98701.06
2022-10-12T04:19:01.471Z,98709.66
2022-10-12T04:21:34.923Z,98707.63
2022-10-12T04:24:05.106Z,98702.56
2022-10-12T04:26:35.323Z,98707.63
2022-10-12T04:29:05.389Z,98702.66
2022-10-12T04:31:35.510Z,98698.13
2022-10-12T04:34:05.554Z,98702.25
2022-10-12T04:36:38.335Z,98709.13
2022-10-12T04:39:08.405Z,98700.13
2022-10-12T04:41:39.899Z,98707.97
2022-10-12T04:44:10.823Z,98704.06
2022-10-12T04:46:40.984Z,98707.19
2022-10-12T04:49:11.019Z,98708.03
2022-10-12T04:51:43.660Z,98711.41
2022-10-12T04:54:14.452Z,98708.69
2022-10-12T04:56:47.895Z,98711.25
2022-10-12T04:59:18.497Z,98708.16
2022-10-12T05:01:48.851Z,98705.06
2022-10-12T05:04:18.989Z,98708.94
2022-10-12T05:06:51.652Z,98710.91
2022-10-12T05:09:22.136Z,98716.59
2022-10-12T05:11:52.112Z,98719.53
2022-10-12T05:14:22.121Z,98711.63
2022-10-12T05:16:52.113Z,98714.38
2022-10-12T05:19:22.175Z,98710.03
2022-10-12T05:21:55.798Z,98713.00
2022-10-12T05:24:25.793Z,98717.19
2022-10-12T05:26:56.660Z,98721.28
2022-10-12T05:29:26.758Z,98712.72
2022-10-12T05:31:56.969Z,98713.69
2022-10-12T05:34:27.104Z,98706.00
2022-10-12T05:37:00.367Z,98716.00
2022-10-12T05:39:30.504Z,98710.91
2022-10-12T05:42:00.489Z,98708.56
2022-10-12T05:44:30.473Z,98712.59
2022-10-12T05:47:00.597Z,98717.34
2022-10-12T05:49:31.175Z,98720.91
2022-10-12T05:52:04.093Z,98728.75
2022-10-12T05:54:34.099Z,98727.44
2022-10-12T05:57:04.209Z,98727.44
2022-10-12T05:59:34.258Z,98732.41
2022-10-12T06:02:04.554Z,98729.50
2022-10-12T06:04:34.633Z,98728.97
2022-10-12T06:07:07.343Z,98739.41
2022-10-12T06:09:38.996Z,98735.47
2022-10-12T06:12:09.858Z,98740.38
2022-10-12T06:14:39.842Z,98735.25
2022-10-12T06:17:09.910Z,98734.72
2022-10-12T06:19:40.221Z,98731.22
2022-10-12T06:22:12.946Z,98737.75
2022-10-12T06:24:42.897Z,98735.97
2022-10-12T06:27:14.009Z,98732.19
2022-10-12T06:29:44.060Z,98736.19
2022-10-12T06:32:14.071Z,98742.75
2022-10-12T06:34:44.097Z,98740.56
2022-10-12T06:37:44.557Z,98745.69
2022-10-12T06:40:09.809Z,98754.06
2022-10-12T06:42:40.149Z,98747.44
2022-10-12T06:45:12.130Z,98746.88
2022-10-12T06:47:42.290Z,98744.16
2022-10-12T06:50:13.509Z,98744.00
2022-10-12T06:52:46.294Z,98748.34
2022-10-12T06:55:16.530Z,98752.72
2022-10-12T06:57:46.696Z,98754.09
2022-10-12T07:00:18.575Z,98757.84
2022-10-12T07:02:51.868Z,98753.97
2022-10-12T07:05:23.257Z,98753.41
2022-10-12T07:07:56.386Z,98756.38
2022-10-12T07:10:28.263Z,98748.09
2022-10-12T07:12:58.362Z,98753.81
2022-10-12T07:15:28.508Z,98752.41
2022-10-12T07:17:58.494Z,98753.16
2022-10-12T07:20:28.470Z,98761.03
2022-10-12T07:23:01.093Z,98752.81
2022-10-12T07:25:31.146Z,98756.69
2022-10-12T07:28:01.145Z,98754.72
2022-10-12T07:30:31.150Z,98750.34
2022-10-12T07:33:01.142Z,98751.56
2022-10-12T07:35:31.133Z,98744.38
2022-10-12T07:38:03.812Z,98749.28
2022-10-12T07:40:34.625Z,98752.38
2022-10-12T07:43:15.604Z,98753.88
2022-10-12T07:45:46.880Z,98756.06
2022-10-12T07:48:16.934Z,98756.06
2022-10-12T07:50:46.986Z,98761.47
2022-10-12T07:53:19.714Z,98758.91
2022-10-12T07:55:50.238Z,98754.06
2022-10-12T07:58:20.236Z,98756.75
2022-10-12T08:00:50.307Z,98756.38
2022-10-12T08:03:20.454Z,98765.03
2022-10-12T08:05:50.783Z,98762.25
2022-10-12T08:08:23.853Z,98762.16
2022-10-12T08:10:53.853Z,98760.78
2022-10-12T08:13:25.680Z,98763.72
2022-10-12T08:15:55.667Z,98758.94
2022-10-12T08:18:25.822Z,98759.03
2022-10-12T08:20:56.266Z,98758.00
2022-10-12T08:23:29.351Z,98755.88
2022-10-12T08:26:16.133Z,98763.63
2022-10-12T08:28:46.808Z,98758.53
2022-10-12T08:31:19.637Z,98760.06
2022-10-12T08:33:49.668Z,98769.56
2022-10-12T08:36:19.732Z,98762.72
2022-10-12T08:38:57.831Z,98767.41
2022-10-12T08:41:43.312Z,98758.56
2022-10-12T08:44:38.787Z,98763.81
2022-10-12T08:47:17.960Z,98756.84
2022-10-12T08:49:50.322Z,98762.44
2022-10-12T08:52:33.468Z,98756.97
2022-10-12T08:55:22.339Z,98750.88
2022-10-12T08:57:52.527Z,98759.44
2022-10-12T09:00:23.085Z,98754.00
2022-10-12T09:03:11.774Z,98748.03
2022-10-12T09:05:51.708Z,98752.28
2022-10-12T09:12:18.664Z,98748.03
2022-10-12T09:14:52.701Z,98741.03
2022-10-12T09:17:32.902Z,98744.75
2022-10-12T09:20:09.956Z,98735.72
2022-10-12T09:22:42.038Z,98734.69
2022-10-12T09:25:17.419Z,98745.19
2022-10-12T09:27:50.802Z,98740.47
2022-10-12T09:30:23.683Z,98741.19
2022-10-12T09:35:51.124Z,98754.13
2022-10-12T09:38:21.906Z,98753.06
2022-10-12T09:40:51.901Z,98760.06
2022-10-12T09:43:22.073Z,98754.16
2022-10-12T09:45:52.739Z,98755.59
2022-10-12T09:48:26.520Z,98750.81
2022-10-12T09:51:03.363Z,98744.78
2022-10-12T09:53:37.747Z,98751.50
2022-10-12T09:56:16.017Z,98756.88
2022-10-12T09:58:56.521Z,98753.06
2022-10-12T10:01:43.853Z,98746.56
2022-10-12T10:04:20.109Z,98748.91
2022-10-12T10:06:53.537Z,98753.84
2022-10-12T10:09:36.161Z,98755.44
2022-10-12T10:15:59.402Z,98747.13
2022-10-12T10:41:22.925Z,98747.16
2022-10-12T10:43:53.599Z,98753.66
2022-10-12T10:46:31.100Z,98744.78
2022-10-12T10:49:07.000Z,98749.13
2022-10-12T10:54:42.802Z,98742.16
2022-10-12T10:57:20.101Z,98740.94
2022-10-12T11:00:02.230Z,98742.69
2022-10-12T11:05:39.263Z,98753.25
2022-10-12T11:08:20.248Z,98750.53
2022-10-12T11:10:59.057Z,98749.41
2022-10-12T11:13:49.439Z,98743.63
2022-10-12T11:19:23.525Z,98738.34
2022-10-12T11:25:11.574Z,98744.75
2022-10-12T11:27:44.452Z,98739.66
2022-10-12T11:30:21.158Z,98738.75
2022-10-12T11:35:47.808Z,98739.16
2022-10-12T11:38:27.097Z,98734.78
2022-10-12T11:44:10.132Z,98727.56
2022-10-12T11:46:47.049Z,98724.50
2022-10-12T11:49:32.255Z,98724.69
2022-10-12T11:55:23.679Z,98718.78
2022-10-12T11:57:57.377Z,98713.06
2022-10-12T12:03:33.349Z,98714.38
2022-10-12T12:06:50.223Z,98696.91
2022-10-12T12:09:35.811Z,98705.28
2022-10-12T12:15:22.726Z,98694.50
2022-10-12T12:21:10.083Z,98707.25
2022-10-12T12:23:46.237Z,98704.16
2022-10-12T12:29:24.775Z,98691.84
2022-10-12T12:31:59.761Z,98693.00
2022-10-12T12:34:31.315Z,98695.75
2022-10-12T12:37:12.326Z,98684.38
2022-10-12T12:39:45.899Z,98692.19
2022-10-12T12:45:55.505Z,98680.47
2022-10-12T12:51:17.405Z,98677.69
2022-10-12T12:53:53.873Z,98675.31
2022-10-12T12:56:35.620Z,98677.19
2022-10-12T13:09:12.171Z,98676.06
2022-10-12T13:12:26.641Z,98673.84
2022-10-12T13:15:32.667Z,98672.25
2022-10-12T13:21:23.389Z,98663.34
2022-10-12T13:24:03.872Z,98659.31
2022-10-12T13:26:35.181Z,98656.41
2022-10-12T13:29:18.109Z,98661.22
2022-10-12T13:32:07.083Z,98657.59
2022-10-12T13:37:19.766Z,98646.81
2022-10-12T13:39:50.467Z,98639.50
2022-10-12T13:42:28.751Z,98637.47
2022-10-12T13:45:00.077Z,98632.28
2022-10-12T13:47:33.355Z,98633.81
2022-10-12T13:50:03.747Z,98629.00
2022-10-12T13:52:38.946Z,98625.34
2022-10-12T13:55:34.184Z,98627.59
2022-10-12T14:00:51.201Z,98625.66
2022-10-12T14:06:04.885Z,98616.00
2022-10-12T14:08:38.162Z,98619.56
2022-10-12T14:16:40.241Z,98619.34
2022-10-12T14:19:34.607Z,98621.50
2022-10-12T14:22:06.220Z,98619.53
2022-10-12T14:27:35.210Z,98619.25
2022-10-12T14:30:20.322Z,98619.97
2022-10-12T14:32:53.940Z,98615.47
2022-10-12T14:35:30.267Z,98620.28
2022-10-12T14:38:00.472Z,98616.97
2022-10-12T14:46:03.150Z,98613.78
2022-10-12T14:48:33.133Z,98613.13
2022-10-12T14:51:03.225Z,98609.78
2022-10-12T14:53:33.587Z,98606.06
2022-10-12T14:56:03.666Z,98608.47
2022-10-12T14:58:33.697Z,98603.53
2022-10-12T15:01:06.458Z,98595.81
2022-10-12T15:03:37.721Z,98597.50
2022-10-12T15:06:08.164Z,98595.50
2022-10-12T15:08:38.164Z,98604.50
2022-10-12T15:13:50.845Z,98597.59
2022-10-12T15:16:26.248Z,98592.06
2022-10-12T15:18:56.700Z,98590.25
2022-10-12T15:21:26.709Z,98585.09
2022-10-12T15:23:57.140Z,98585.84
2022-10-12T15:26:27.186Z,98587.22
2022-10-12T15:28:59.982Z,98585.38
2022-10-12T15:31:30.228Z,98587.03
2022-10-12T15:34:00.330Z,98575.97
2022-10-12T15:36:30.327Z,98582.66
2022-10-12T15:39:00.347Z,98588.25
2022-10-12T15:41:30.778Z,98583.59
2022-10-12T15:44:03.537Z,98586.03
2022-10-12T15:46:33.586Z,98585.25
2022-10-12T15:49:03.659Z,98584.75
2022-10-12T15:51:36.306Z,98589.25
2022-10-12T15:54:06.425Z,98590.03
2022-10-12T15:56:38.723Z,98592.25
2022-10-12T15:59:11.615Z,98586.38
2022-10-12T16:01:43.229Z,98585.09
2022-10-12T16:04:17.322Z,98584.78
2022-10-12T16:06:47.375Z,98578.47
2022-10-12T16:09:17.436Z,98582.88
2022-10-12T16:11:47.556Z,98576.22
2022-10-12T16:14:20.237Z,98576.34
2022-10-12T16:16:50.266Z,98573.28
2022-10-12T16:19:20.274Z,98576.53
2022-10-12T16:21:50.333Z,98574.19
2022-10-12T16:24:20.503Z,98575.88
2022-10-12T16:26:50.568Z,98570.00
2022-10-12T16:29:23.273Z,98581.50
2022-10-12T16:31:53.314Z,98574.44
2022-10-12T16:34:23.463Z,98583.56
2022-10-12T16:36:55.452Z,98586.34
2022-10-12T16:39:27.747Z,98593.88
2022-10-12T16:41:57.821Z,98606.13
2022-10-12T16:44:30.541Z,98596.06
2022-10-12T16:47:01.976Z,98603.34
2022-10-12T16:49:32.121Z,98605.72
2022-10-12T16:52:02.194Z,98607.88
2022-10-12T16:54:32.362Z,98601.97
2022-10-12T16:57:03.184Z,98594.66
2022-10-12T16:59:35.991Z,98597.81
2022-10-12T17:02:06.077Z,98601.72
2022-10-12T17:04:36.355Z,98601.72
2022-10-12T17:07:06.577Z,98596.63
2022-10-12T17:09:36.623Z,98597.72
2022-10-12T17:12:07.076Z,98598.50
2022-10-12T17:14:39.856Z,98594.31
2022-10-12T17:17:09.901Z,98592.94
2022-10-12T17:19:41.553Z,98594.88
2022-10-12T17:22:14.367Z,98603.72
2022-10-12T17:24:45.908Z,98601.50
2022-10-12T17:27:17.216Z,98606.25
2022-10-12T17:29:50.095Z,98606.63
2022-10-12T17:32:20.149Z,98613.50
2022-10-12T17:34:50.153Z,98612.06
2022-10-12T17:37:21.960Z,98610.09
2022-10-12T17:39:52.443Z,98610.31
2022-10-12T17:42:23.187Z,98612.81
2022-10-12T17:44:55.809Z,98613.19
2022-10-12T17:47:25.861Z,98608.31
2022-10-12T17:49:55.845Z,98605.97
2022-10-12T17:52:25.908Z,98609.28
2022-10-12T17:54:55.964Z,98614.97
2022-10-12T17:57:25.982Z,98621.00
2022-10-12T17:59:58.596Z,98617.66
2022-10-12T18:02:28.767Z,98621.53
2022-10-12T18:04:58.784Z,98622.28
2022-10-12T18:07:28.862Z,98615.38
2022-10-12T18:12:28.881Z,98616.94
2022-10-12T18:15:01.612Z,98616.56
2022-10-12T18:17:31.730Z,98618.16
2022-10-12T18:20:01.850Z,98624.59
2022-10-12T18:22:32.640Z,98615.59
2022-10-12T18:25:02.684Z,98619.88
2022-10-12T18:27:32.727Z,98622.00
2022-10-12T18:30:05.435Z,98614.50
2022-10-12T18:32:35.499Z,98628.09
2022-10-12T18:35:05.656Z,98627.09
2022-10-12T18:37:35.765Z,98629.97
2022-10-12T18:40:06.029Z,98627.81
2022-10-12T18:42:36.029Z,98626.22
2022-10-12T18:45:09.867Z,98625.25
2022-10-12T18:47:40.475Z,98619.56
2022-10-12T18:50:12.293Z,98628.88
2022-10-12T18:52:42.367Z,98627.56
2022-10-12T18:55:12.958Z,98628.59
2022-10-12T18:57:43.057Z,98632.41
2022-10-12T19:00:16.712Z,98631.69
2022-10-12T19:02:46.785Z,98622.81
2022-10-12T19:05:16.834Z,98622.56
2022-10-12T19:07:46.893Z,98628.47
2022-10-12T19:10:17.019Z,98621.63
2022-10-12T19:12:47.072Z,98625.59
2022-10-12T19:15:19.944Z,98618.03
2022-10-12T19:17:50.036Z,98621.69
2022-10-12T19:20:20.365Z,98617.91
2022-10-12T19:22:50.372Z,98622.50
2022-10-12T19:25:21.914Z,98615.81
2022-10-12T19:27:52.047Z,98616.53
2022-10-12T19:30:24.755Z,98622.34
2022-10-12T19:32:54.894Z,98620.59
2022-10-12T19:35:25.115Z,98628.25
2022-10-12T19:37:55.151Z,98628.59
2022-10-12T19:40:25.315Z,98619.97
2022-10-12T19:42:55.330Z,98629.84
2022-10-12T19:45:28.269Z,98634.59
2022-10-12T19:47:58.392Z,98636.25
2022-10-12T19:50:28.445Z,98632.91
2022-10-12T19:52:58.525Z,98639.13
2022-10-12T19:55:28.587Z,98640.97
2022-10-12T19:57:58.676Z,98638.50
2022-10-12T20:00:31.553Z,98638.09
2022-10-12T20:03:01.588Z,98633.34
2022-10-12T20:05:31.630Z,98637.09
2022-10-12T20:08:01.678Z,98643.16
2022-10-12T20:10:31.784Z,98636.38
2022-10-12T20:13:01.906Z,98634.16
2022-10-12T20:15:35.512Z,98647.25
2022-10-12T20:18:05.920Z,98653.91
2022-10-12T20:20:35.993Z,98647.88
2022-10-12T20:23:06.084Z,98649.16
2022-10-12T20:25:36.154Z,98643.38
2022-10-12T20:28:06.665Z,98645.75
2022-10-12T20:30:39.971Z,98644.50
2022-10-12T20:33:10.733Z,98647.22
2022-10-12T20:35:40.815Z,98659.69
2022-10-12T20:38:10.859Z,98656.06
2022-10-12T20:40:40.995Z,98662.81
2022-10-12T20:43:11.074Z,98662.97
2022-10-12T20:45:44.011Z,98661.97
2022-10-12T20:48:14.038Z,98657.44
2022-10-12T20:50:44.114Z,98658.53
2022-10-12T20:53:14.160Z,98653.66
2022-10-12T20:55:44.378Z,98652.22
2022-10-12T20:58:14.363Z,98654.38
2022-10-12T21:00:47.043Z,98656.22
2022-10-12T21:03:17.177Z,98659.56
2022-10-12T21:05:47.239Z,98656.81
2022-10-12T21:08:17.302Z,98658.81
2022-10-12T21:10:49.638Z,98660.06
2022-10-12T21:13:19.636Z,98652.22
2022-10-12T21:15:56.715Z,98653.38
2022-10-12T21:18:27.592Z,98646.50
2022-10-12T21:21:02.587Z,98648.19
2022-10-12T21:23:32.650Z,98640.22
2022-10-12T21:26:10.855Z,98643.38
2022-10-12T21:28:41.040Z,98638.63
2022-10-12T21:31:15.248Z,98638.84
2022-10-12T21:33:45.756Z,98631.78
2022-10-12T21:36:18.825Z,98630.44
2022-10-12T21:38:50.158Z,98632.69
2022-10-12T21:41:22.892Z,98627.59
2022-10-12T21:43:54.283Z,98632.44
2022-10-12T21:46:30.255Z,98636.97
2022-10-12T21:49:02.460Z,98631.00
2022-10-12T21:51:34.604Z,98631.72
2022-10-12T21:54:04.778Z,98625.41
2022-10-12T21:56:38.555Z,98628.53
2022-10-12T21:59:09.522Z,98632.09
2022-10-12T22:01:43.221Z,98628.56
2022-10-12T22:04:17.441Z,98630.44
2022-10-12T22:06:47.699Z,98624.78
2022-10-12T22:09:20.404Z,98623.84
2022-10-12T22:11:51.072Z,98634.91
2022-10-12T22:14:22.119Z,98634.94
2022-10-12T22:16:54.736Z,98630.41
2022-10-12T22:19:25.369Z,98628.72
2022-10-12T22:21:56.250Z,98626.81
2022-10-12T22:24:30.838Z,98621.47
2022-10-12T22:27:01.451Z,98611.25
2022-10-12T22:29:31.496Z,98620.84
2022-10-12T22:32:05.622Z,98615.75
2022-10-12T22:34:35.825Z,98612.44
2022-10-12T22:37:05.885Z,98616.94
2022-10-12T22:39:35.987Z,98622.50
2022-10-12T22:42:06.204Z,98620.91
2022-10-12T22:44:36.262Z,98624.72
2022-10-12T22:47:08.982Z,98629.66
2022-10-12T22:49:38.993Z,98626.84
2022-10-12T22:52:08.993Z,98630.28
2022-10-12T22:54:39.651Z,98614.94
2022-10-12T22:57:09.706Z,98619.09
2022-10-12T22:59:40.083Z,98621.34
2022-10-12T23:02:12.666Z,98612.69
2022-10-12T23:04:42.643Z,98614.28
2022-10-12T23:07:12.727Z,98620.81
2022-10-12T23:09:44.428Z,98617.97
2022-10-12T23:12:14.389Z,98612.88
2022-10-12T23:14:46.170Z,98615.41
2022-10-12T23:17:18.771Z,98619.06
2022-10-12T23:19:48.852Z,98603.91
2022-10-12T23:22:19.247Z,98608.03
2022-10-12T23:24:49.631Z,98610.97
2022-10-12T23:27:20.555Z,98597.72
2022-10-12T23:29:51.215Z,98600.91
2022-10-12T23:32:23.904Z,98595.81
2022-10-12T23:34:53.898Z,98592.06
2022-10-12T23:37:24.065Z,98596.94
2022-10-12T23:39:54.334Z,98592.19
2022-10-12T23:42:24.497Z,98600.78
2022-10-12T23:44:55.406Z,98605.88
2022-10-12T23:47:28.396Z,98599.00
2022-10-12T23:49:58.431Z,98607.03
2022-10-12T23:52:29.090Z,98614.22
2022-10-12T23:54:59.122Z,98610.00
2022-10-12T23:57:46.246Z,98619.53
